createdAt,value
2023-02-16T00:00:26.861Z,7.70
2023-02-16T00:02:54.069Z,7.60
2023-02-16T00:05:28.208Z,7.60
2023-02-16T00:07:56.587Z,7.60
2023-02-16T00:10:25.047Z,7.60
2023-02-16T00:13:11.736Z,7.60
2023-02-16T00:15:38.633Z,7.60
2023-02-16T00:18:19.230Z,7.50
2023-02-16T00:20:48.276Z,7.50
2023-02-16T00:23:15.399Z,7.30
2023-02-16T00:25:42.206Z,7.50
2023-02-16T00:28:18.390Z,7.50
2023-02-16T00:30:46.321Z,7.40
2023-02-16T00:33:18.522Z,7.40
2023-02-16T00:35:45.612Z,7.40
2023-02-16T00:38:13.542Z,7.40
2023-02-16T00:40:42.322Z,7.40
2023-02-16T00:43:32.498Z,7.30
2023-02-16T00:45:59.706Z,7.30
2023-02-16T00:48:26.517Z,7.30
2023-02-16T00:50:53.588Z,7.30
2023-02-16T00:53:20.322Z,7.20
2023-02-16T00:55:47.171Z,7.20
2023-02-16T00:58:27.860Z,7.20
2023-02-16T01:01:02.568Z,7.20
2023-02-16T01:03:29.761Z,7.20
2023-02-16T01:06:15.409Z,7.20
2023-02-16T01:09:01.513Z,7.20
2023-02-16T01:11:28.983Z,7.20
2023-02-16T01:13:57.498Z,7.10
2023-02-16T01:16:38.957Z,7.10
2023-02-16T01:21:33.881Z,7.00
2023-02-16T01:24:00.693Z,7.00
2023-02-16T01:26:27.492Z,7.00
2023-02-16T01:28:54.215Z,7.00
2023-02-16T01:31:21.130Z,7.00
2023-02-16T01:33:47.858Z,7.00
2023-02-16T01:36:32.546Z,6.90
2023-02-16T01:39:00.048Z,6.90
2023-02-16T01:41:57.234Z,6.90
2023-02-16T01:44:27.240Z,6.90
2023-02-16T01:47:16.524Z,6.90
2023-02-16T01:49:43.262Z,6.80
2023-02-16T01:52:37.813Z,6.80
2023-02-16T01:55:18.069Z,6.80
2023-02-16T01:58:03.975Z,6.80
2023-02-16T02:00:49.061Z,6.70
2023-02-16T02:03:49.353Z,6.70
2023-02-16T02:06:27.791Z,6.70
2023-02-16T02:09:16.288Z,6.70
2023-02-16T02:11:57.290Z,6.70
2023-02-16T02:14:32.664Z,6.70
2023-02-16T02:17:05.977Z,6.60
2023-02-16T02:19:48.696Z,6.70
2023-02-16T02:23:06.966Z,6.60
2023-02-16T02:26:04.453Z,6.60
2023-02-16T02:28:53.175Z,6.60
2023-02-16T02:31:44.126Z,6.60
2023-02-16T02:34:38.256Z,6.50
2023-02-16T02:37:29.749Z,6.50
2023-02-16T02:40:41.596Z,6.50
2023-02-16T02:43:37.693Z,6.50
2023-02-16T02:46:17.925Z,6.40
2023-02-16T02:48:44.728Z,6.40
2023-02-16T02:51:30.333Z,6.40
2023-02-16T02:54:25.170Z,6.30
2023-02-16T02:57:37.734Z,6.30
2023-02-16T03:00:39.973Z,6.50
2023-02-16T03:03:32.802Z,6.30
2023-02-16T03:06:11.176Z,6.30
2023-02-16T03:08:44.776Z,6.20
2023-02-16T03:11:40.350Z,6.20
2023-02-16T03:14:15.142Z,6.20
2023-02-16T03:16:48.164Z,6.20
2023-02-16T03:19:37.127Z,6.20
2023-02-16T03:22:24.022Z,6.20
2023-02-16T03:25:09.395Z,6.20
2023-02-16T03:28:00.378Z,6.10
2023-02-16T03:30:28.988Z,6.10
2023-02-16T03:32:55.880Z,6.10
2023-02-16T03:35:22.882Z,6.10
2023-02-16T03:37:49.630Z,6.10
2023-02-16T03:40:30.121Z,6.40
2023-02-16T03:43:03.462Z,5.90
2023-02-16T03:45:33.062Z,6.10
2023-02-16T03:47:59.792Z,6.20
2023-02-16T03:50:27.406Z,6.10
2023-02-16T03:53:06.879Z,6.10
2023-02-16T03:55:47.047Z,6.30
2023-02-16T03:58:18.575Z,5.90
2023-02-16T04:00:45.678Z,5.90
2023-02-16T04:03:13.298Z,6.10
2023-02-16T04:05:40.353Z,5.80
2023-02-16T04:08:08.832Z,6.00
2023-02-16T04:10:37.262Z,5.90
2023-02-16T04:13:04.600Z,6.10
2023-02-16T04:15:32.252Z,6.10
2023-02-16T04:17:59.970Z,6.10
2023-02-16T04:20:31.106Z,6.00
2023-02-16T04:22:58.467Z,6.00
2023-02-16T04:27:54.109Z,5.90
2023-02-16T04:30:26.439Z,6.00
2023-02-16T04:32:53.998Z,6.00
2023-02-16T04:35:21.628Z,6.20
2023-02-16T04:37:48.869Z,5.90
2023-02-16T04:40:17.833Z,6.00
2023-02-16T04:42:45.877Z,6.00
2023-02-16T04:45:13.626Z,6.00
2023-02-16T04:47:40.626Z,6.00
2023-02-16T04:50:08.559Z,6.00
2023-02-16T04:52:36.616Z,6.50
2023-02-16T04:55:05.456Z,6.00
2023-02-16T04:57:32.475Z,6.00
2023-02-16T04:59:59.228Z,6.00
2023-02-16T05:02:26.011Z,5.90
2023-02-16T05:04:52.796Z,5.90
2023-02-16T05:07:19.539Z,5.90
2023-02-16T05:09:46.277Z,5.70
2023-02-16T05:12:31.745Z,5.90
2023-02-16T05:14:58.471Z,5.90
2023-02-16T05:17:26.951Z,5.90
2023-02-16T05:20:00.119Z,5.90
2023-02-16T05:22:33.549Z,5.80
2023-02-16T05:25:03.561Z,5.80
2023-02-16T05:27:31.096Z,5.80
2023-02-16T05:29:58.778Z,5.80
2023-02-16T05:32:26.478Z,5.70
2023-02-16T05:34:53.390Z,5.80
2023-02-16T05:37:20.106Z,5.70
2023-02-16T05:39:47.082Z,5.70
2023-02-16T05:42:13.938Z,5.80
2023-02-16T05:44:40.689Z,5.70
2023-02-16T05:47:07.934Z,5.70
2023-02-16T05:49:34.725Z,5.90
2023-02-16T05:52:01.847Z,5.70
2023-02-16T05:54:28.699Z,5.70
2023-02-16T05:56:55.557Z,5.70
2023-02-16T05:59:22.646Z,5.70
2023-02-16T06:01:51.848Z,5.70
2023-02-16T06:04:20.567Z,5.70
2023-02-16T06:06:48.274Z,5.70
2023-02-16T06:09:15.095Z,5.70
2023-02-16T06:11:42.106Z,5.80
2023-02-16T06:14:15.583Z,5.60
2023-02-16T06:16:45.910Z,5.90
2023-02-16T06:19:13.711Z,5.60
2023-02-16T06:21:41.484Z,5.60
2023-02-16T06:24:10.448Z,5.60
2023-02-16T06:26:37.903Z,5.60
2023-02-16T06:29:06.883Z,5.60
2023-02-16T06:31:36.189Z,5.60
2023-02-16T06:34:03.764Z,5.60
2023-02-16T06:36:31.032Z,5.60
2023-02-16T06:38:57.790Z,6.00
2023-02-16T06:41:40.007Z,5.50
2023-02-16T06:44:12.520Z,5.60
2023-02-16T06:46:41.091Z,5.80
2023-02-16T06:49:11.105Z,5.70
2023-02-16T06:51:38.682Z,5.50
2023-02-16T06:54:05.520Z,5.70
2023-02-16T06:56:32.398Z,5.70
2023-02-16T06:58:59.147Z,5.50
2023-02-16T07:01:26.236Z,5.90
2023-02-16T07:03:55.167Z,5.70
2023-02-16T07:06:24.793Z,5.80
2023-02-16T07:08:53.025Z,5.80
2023-02-16T07:11:20.318Z,5.80
2023-02-16T07:13:47.820Z,5.80
2023-02-16T07:18:42.816Z,5.90
2023-02-16T07:21:09.536Z,6.00
2023-02-16T07:23:36.278Z,5.90
2023-02-16T07:26:03.138Z,6.00
2023-02-16T07:28:29.938Z,6.10
2023-02-16T07:30:56.762Z,6.30
2023-02-16T07:33:23.905Z,6.10
2023-02-16T07:35:50.629Z,6.20
2023-02-16T07:38:17.434Z,6.20
2023-02-16T07:40:44.164Z,6.20
2023-02-16T07:43:10.882Z,6.30
2023-02-16T07:45:37.787Z,6.20
2023-02-16T07:48:05.102Z,6.30
2023-02-16T07:50:31.867Z,6.40
2023-02-16T07:53:02.726Z,6.40
2023-02-16T07:55:29.463Z,6.20
2023-02-16T07:58:00.043Z,6.50
2023-02-16T08:00:27.403Z,6.60
2023-02-16T08:02:54.191Z,6.60
2023-02-16T08:05:21.154Z,6.70
2023-02-16T08:07:47.986Z,6.80
2023-02-16T08:10:15.730Z,6.90
2023-02-16T08:12:42.704Z,6.90
2023-02-16T08:15:10.655Z,7.00
2023-02-16T08:17:37.460Z,7.00
2023-02-16T08:20:07.627Z,7.10
2023-02-16T08:22:35.852Z,7.10
2023-02-16T08:25:02.613Z,7.10
2023-02-16T08:27:29.320Z,7.20
2023-02-16T08:29:56.093Z,7.00
2023-02-16T08:32:22.967Z,7.30
2023-02-16T08:34:49.732Z,7.30
2023-02-16T08:37:16.467Z,7.30
2023-02-16T08:39:43.361Z,7.40
2023-02-16T08:42:13.295Z,7.40
2023-02-16T08:44:42.270Z,7.60
2023-02-16T08:47:09.496Z,7.40
2023-02-16T08:49:36.491Z,7.50
2023-02-16T08:52:04.173Z,7.50
2023-02-16T08:54:33.243Z,7.60
2023-02-16T08:57:02.682Z,7.60
2023-02-16T09:01:59.424Z,7.70
2023-02-16T09:04:29.252Z,7.80
2023-02-16T09:06:58.145Z,7.90
2023-02-16T09:09:26.290Z,7.90
2023-02-16T09:11:53.505Z,8.00
2023-02-16T09:14:22.951Z,8.20
2023-02-16T09:19:20.703Z,8.20
2023-02-16T09:21:50.888Z,8.30
2023-02-16T09:24:19.082Z,8.40
2023-02-16T09:26:45.833Z,8.70
2023-02-16T09:29:13.867Z,8.50
2023-02-16T09:31:42.445Z,8.60
2023-02-16T09:34:21.694Z,8.80
2023-02-16T09:36:50.370Z,8.70
2023-02-16T09:39:18.676Z,8.80
2023-02-16T09:42:03.277Z,8.90
2023-02-16T09:45:02.774Z,9.00
2023-02-16T09:47:35.649Z,9.10
2023-02-16T09:50:13.266Z,9.30
2023-02-16T09:52:52.502Z,9.30
2023-02-16T09:55:22.447Z,9.40
2023-02-16T09:58:17.361Z,9.50
2023-02-16T10:00:52.064Z,9.60
2023-02-16T10:03:34.447Z,9.90
2023-02-16T10:06:13.663Z,9.80
2023-02-16T10:09:16.992Z,10.10
2023-02-16T10:11:51.179Z,10.10
2023-02-16T10:14:31.671Z,10.20
2023-02-16T10:17:32.643Z,10.30
2023-02-16T10:20:23.740Z,10.40
2023-02-16T10:23:07.963Z,10.50
2023-02-16T10:25:46.490Z,10.50
2023-02-16T10:28:22.647Z,10.70
2023-02-16T10:31:03.217Z,10.70
2023-02-16T10:33:45.091Z,10.80
2023-02-16T10:36:42.467Z,10.90
2023-02-16T10:39:43.380Z,11.00
2023-02-16T10:42:43.862Z,11.10
2023-02-16T10:45:42.000Z,11.20
2023-02-16T10:48:11.073Z,11.30
2023-02-16T10:50:58.443Z,11.50
2023-02-16T10:53:40.556Z,11.20
2023-02-16T10:56:43.786Z,11.60
2023-02-16T10:59:43.726Z,11.70
2023-02-16T11:02:44.164Z,11.80
2023-02-16T11:05:26.232Z,11.90
2023-02-16T11:08:02.567Z,12.10
2023-02-16T11:10:51.670Z,12.20
2023-02-16T11:13:27.892Z,12.20
2023-02-16T11:16:01.569Z,12.30
2023-02-16T11:18:37.928Z,12.40
2023-02-16T11:21:07.385Z,12.40
2023-02-16T11:26:11.718Z,12.60
2023-02-16T11:28:47.662Z,12.60
2023-02-16T11:31:34.258Z,12.70
2023-02-16T11:34:26.000Z,12.80
2023-02-16T11:37:12.312Z,12.70
2023-02-16T11:39:46.984Z,12.80
2023-02-16T11:42:43.962Z,12.80
2023-02-16T11:45:33.699Z,13.00
2023-02-16T11:48:27.223Z,12.90
2023-02-16T11:50:58.555Z,13.00
2023-02-16T11:53:30.934Z,13.00
2023-02-16T11:56:24.574Z,13.20
2023-02-16T11:59:20.732Z,13.00
2023-02-16T12:01:53.048Z,13.10
2023-02-16T12:05:01.795Z,13.20
2023-02-16T12:08:07.515Z,13.20
2023-02-16T12:11:06.330Z,13.10
2023-02-16T12:13:56.938Z,13.40
2023-02-16T12:16:45.582Z,13.40
2023-02-16T12:19:45.071Z,13.50
2023-02-16T12:22:22.094Z,13.60
2023-02-16T12:25:19.788Z,13.70
2023-02-16T12:28:40.743Z,13.80
2023-02-16T12:31:54.381Z,13.80
2023-02-16T12:34:52.338Z,13.90
2023-02-16T12:37:42.586Z,12.10
2023-02-16T12:40:50.140Z,13.90
2023-02-16T12:43:41.886Z,14.00
2023-02-16T12:46:40.421Z,14.00
2023-02-16T12:49:27.499Z,14.00
2023-02-16T12:52:10.287Z,14.10
2023-02-16T12:54:54.436Z,14.10
2023-02-16T12:57:24.418Z,14.10
2023-02-16T13:00:03.004Z,14.10
2023-02-16T13:02:47.079Z,14.10
2023-02-16T13:05:36.047Z,14.10
2023-02-16T13:08:28.128Z,14.20
2023-02-16T13:11:22.102Z,14.10
2023-02-16T13:13:52.656Z,14.20
2023-02-16T13:17:00.222Z,14.20
2023-02-16T13:19:26.988Z,14.20
2023-02-16T13:21:53.621Z,14.20
2023-02-16T13:25:17.180Z,14.30
2023-02-16T13:28:32.262Z,14.30
2023-02-16T13:31:15.565Z,14.40
2023-02-16T13:34:07.018Z,14.70
2023-02-16T13:36:56.503Z,14.50
2023-02-16T13:39:49.788Z,14.50
2023-02-16T13:42:22.392Z,14.60
2023-02-16T13:44:56.567Z,14.70
2023-02-16T13:47:39.055Z,14.70
2023-02-16T13:50:26.824Z,14.80
2023-02-16T13:52:57.596Z,14.80
2023-02-16T13:55:31.933Z,14.80
2023-02-16T13:58:04.522Z,14.90
2023-02-16T14:00:38.066Z,14.90
2023-02-16T14:03:22.263Z,14.90
2023-02-16T14:05:53.226Z,15.00
2023-02-16T14:08:31.329Z,15.00
2023-02-16T14:11:05.776Z,15.00
2023-02-16T14:13:36.858Z,15.10
2023-02-16T14:16:18.807Z,15.30
2023-02-16T14:18:54.932Z,15.00
2023-02-16T14:21:32.323Z,15.10
2023-02-16T14:24:03.217Z,15.20
2023-02-16T14:26:32.516Z,14.90
2023-02-16T14:29:28.762Z,15.20
2023-02-16T14:32:26.423Z,15.30
2023-02-16T14:35:03.222Z,15.40
2023-02-16T14:37:44.361Z,15.50
2023-02-16T14:40:34.884Z,15.60
2023-02-16T14:43:20.024Z,15.50
2023-02-16T14:46:47.494Z,15.60
2023-02-16T14:49:35.702Z,15.60
2023-02-16T14:52:39.433Z,15.60
2023-02-16T14:55:47.467Z,15.60
2023-02-16T14:58:44.840Z,15.70
2023-02-16T15:01:18.850Z,15.70
2023-02-16T15:03:54.729Z,15.70
2023-02-16T15:06:47.580Z,15.70
2023-02-16T15:09:24.432Z,15.70
2023-02-16T15:12:18.098Z,15.70
2023-02-16T15:15:02.750Z,16.00
2023-02-16T15:17:38.308Z,15.70
2023-02-16T15:20:33.282Z,15.70
2023-02-16T15:23:04.422Z,15.60
2023-02-16T15:25:38.434Z,15.70
2023-02-16T15:28:22.257Z,15.70
2023-02-16T15:30:55.358Z,15.70
2023-02-16T15:33:24.922Z,15.80
2023-02-16T15:36:02.359Z,15.80
2023-02-16T15:38:34.355Z,15.70
2023-02-16T15:41:06.508Z,15.70
2023-02-16T15:43:39.967Z,15.70
2023-02-16T15:46:29.488Z,15.70
2023-02-16T15:48:57.264Z,15.70
2023-02-16T15:51:35.022Z,15.70
2023-02-16T15:54:06.611Z,15.60
2023-02-16T15:56:38.200Z,15.60
2023-02-16T15:59:39.525Z,15.60
2023-02-16T16:02:28.556Z,15.50
2023-02-16T16:05:03.269Z,15.50
2023-02-16T16:07:37.049Z,15.50
2023-02-16T16:10:17.240Z,15.40
2023-02-16T16:12:45.634Z,15.40
2023-02-16T16:15:21.008Z,15.30
2023-02-16T16:17:47.759Z,15.20
2023-02-16T16:20:30.520Z,15.20
2023-02-16T16:23:23.555Z,15.20
2023-02-16T16:25:51.270Z,15.10
2023-02-16T16:28:29.700Z,15.00
2023-02-16T16:31:17.352Z,15.00
2023-02-16T16:34:02.895Z,14.90
2023-02-16T16:36:55.657Z,14.60
2023-02-16T16:39:28.761Z,14.80
2023-02-16T16:42:01.084Z,14.70
2023-02-16T16:44:41.367Z,14.70
2023-02-16T16:47:22.707Z,14.60
2023-02-16T16:49:55.553Z,14.60
2023-02-16T16:52:41.591Z,14.50
2023-02-16T16:55:21.519Z,14.50
2023-02-16T16:57:52.058Z,14.50
2023-02-16T17:00:21.638Z,14.50
2023-02-16T17:02:48.941Z,17.80
2023-02-16T17:07:43.192Z,14.40
2023-02-16T17:10:10.315Z,14.30
2023-02-16T17:12:37.088Z,14.30
2023-02-16T17:15:07.746Z,14.30
2023-02-16T17:17:34.752Z,14.30
2023-02-16T17:20:01.473Z,14.10
2023-02-16T17:22:28.222Z,14.20
2023-02-16T17:24:54.944Z,14.20
2023-02-16T17:27:21.708Z,14.10
2023-02-16T17:29:48.478Z,14.20
2023-02-16T17:32:15.305Z,14.20
2023-02-16T17:34:42.093Z,14.20
2023-02-16T17:37:10.630Z,14.20
2023-02-16T17:39:37.410Z,14.20
2023-02-16T17:42:04.440Z,14.20
2023-02-16T17:44:31.187Z,14.20
2023-02-16T17:46:57.981Z,14.20
2023-02-16T17:49:24.713Z,14.20
2023-02-16T17:51:51.829Z,14.20
2023-02-16T17:54:18.570Z,14.20
2023-02-16T17:56:46.820Z,14.20
2023-02-16T17:59:15.467Z,14.20
2023-02-16T18:01:43.989Z,14.20
2023-02-16T18:04:10.967Z,14.20
2023-02-16T18:06:37.724Z,14.20
2023-02-16T18:09:04.794Z,14.10
2023-02-16T18:11:31.701Z,14.00
2023-02-16T18:13:58.516Z,14.10
2023-02-16T18:16:27.451Z,14.10
2023-02-16T18:18:54.700Z,14.00
2023-02-16T18:21:21.540Z,13.80
2023-02-16T18:23:48.297Z,14.00
2023-02-16T18:26:16.840Z,14.00
2023-02-16T18:28:44.935Z,13.90
2023-02-16T18:31:12.947Z,13.90
2023-02-16T18:33:39.838Z,15.00
2023-02-16T18:36:07.387Z,13.80
2023-02-16T18:38:34.509Z,13.80
2023-02-16T18:41:01.265Z,13.80
2023-02-16T18:43:28.187Z,13.80
2023-02-16T18:45:54.928Z,13.70
2023-02-16T18:48:21.756Z,13.70
2023-02-16T18:50:48.863Z,13.60
2023-02-16T18:53:15.593Z,13.70
2023-02-16T18:58:14.368Z,13.70
2023-02-16T19:00:41.835Z,13.70
2023-02-16T19:03:09.480Z,13.60
2023-02-16T19:05:36.287Z,13.60
2023-02-16T19:08:03.146Z,13.60
2023-02-16T19:10:30.242Z,13.50
2023-02-16T19:12:57.013Z,13.60
2023-02-16T19:15:24.065Z,13.50
2023-02-16T19:17:51.844Z,13.50
2023-02-16T19:20:19.625Z,13.50
2023-02-16T19:22:47.810Z,13.40
2023-02-16T19:25:15.437Z,13.50
2023-02-16T19:27:44.185Z,13.50
2023-02-16T19:30:12.209Z,13.40
2023-02-16T19:32:41.130Z,13.50
2023-02-16T19:35:12.321Z,13.40
2023-02-16T19:37:39.314Z,13.40
2023-02-16T19:40:09.631Z,13.40
2023-02-16T19:42:37.302Z,13.40
2023-02-16T19:45:04.734Z,13.40
2023-02-16T19:47:31.484Z,13.40
2023-02-16T19:49:58.265Z,13.30
2023-02-16T19:52:25.333Z,13.30
2023-02-16T19:54:52.065Z,13.30
2023-02-16T19:57:19.037Z,13.30
2023-02-16T19:59:45.742Z,13.30
2023-02-16T20:02:14.671Z,13.30
2023-02-16T20:04:43.200Z,13.30
2023-02-16T20:07:09.982Z,13.40
2023-02-16T20:09:37.339Z,13.30
2023-02-16T20:12:04.961Z,13.30
2023-02-16T20:14:31.710Z,13.30
2023-02-16T20:16:58.451Z,13.30
2023-02-16T20:19:25.214Z,13.30
2023-02-16T20:21:51.969Z,13.30
2023-02-16T20:24:18.725Z,13.30
2023-02-16T20:26:47.160Z,13.30
2023-02-16T20:29:16.269Z,13.30
2023-02-16T20:31:54.665Z,13.30
2023-02-16T20:34:23.812Z,13.40
2023-02-16T20:36:50.563Z,13.30
2023-02-16T20:39:17.365Z,13.30
2023-02-16T20:41:44.555Z,13.30
2023-02-16T20:44:12.578Z,13.30
2023-02-16T20:46:41.036Z,13.30
2023-02-16T20:49:08.931Z,13.30
2023-02-16T20:51:37.389Z,13.30
2023-02-16T20:54:05.377Z,13.30
2023-02-16T20:56:32.121Z,13.30
2023-02-16T20:58:58.943Z,13.30
2023-02-16T21:01:40.043Z,13.20
2023-02-16T21:04:08.275Z,13.20
2023-02-16T21:06:36.515Z,13.10
2023-02-16T21:09:05.788Z,13.20
2023-02-16T21:11:32.644Z,13.10
2023-02-16T21:13:59.509Z,13.10
2023-02-16T21:16:26.364Z,13.10
2023-02-16T21:18:53.136Z,13.10
2023-02-16T21:21:20.274Z,13.10
2023-02-16T21:23:51.813Z,13.10
2023-02-16T21:26:22.772Z,13.00
2023-02-16T21:28:50.145Z,13.00
2023-02-16T21:31:24.461Z,13.00
2023-02-16T21:33:52.213Z,13.00
2023-02-16T21:36:23.914Z,13.00
2023-02-16T21:38:50.826Z,13.00
2023-02-16T21:41:24.842Z,13.00
2023-02-16T21:44:08.258Z,13.00
2023-02-16T21:46:48.314Z,13.00
2023-02-16T21:49:20.056Z,13.00
2023-02-16T21:51:48.487Z,13.10
2023-02-16T21:54:38.858Z,13.00
2023-02-16T21:57:05.586Z,13.00
2023-02-16T21:59:32.347Z,13.00
2023-02-16T22:01:59.223Z,13.10
2023-02-16T22:04:26.032Z,13.00
2023-02-16T22:06:52.764Z,13.00
2023-02-16T22:09:22.935Z,12.90
2023-02-16T22:11:51.306Z,12.90
2023-02-16T22:14:19.334Z,12.90
2023-02-16T22:16:47.784Z,12.90
2023-02-16T22:19:17.887Z,12.80
2023-02-16T22:21:46.840Z,12.80
2023-02-16T22:24:16.920Z,12.80
2023-02-16T22:26:44.901Z,12.70
2023-02-16T22:29:12.981Z,12.70
2023-02-16T22:31:46.878Z,12.70
2023-02-16T22:34:16.733Z,12.70
2023-02-16T22:36:43.791Z,12.70
2023-02-16T22:39:13.889Z,12.70
2023-02-16T22:41:41.235Z,12.60
2023-02-16T22:44:09.799Z,12.60
2023-02-16T22:46:36.552Z,12.60
2023-02-16T22:49:03.395Z,12.50
2023-02-16T22:51:30.979Z,12.50
2023-02-16T22:54:00.607Z,12.50
2023-02-16T22:56:28.254Z,12.50
2023-02-16T22:58:57.668Z,12.50
2023-02-16T23:01:27.518Z,12.40
2023-02-16T23:03:58.543Z,12.50
2023-02-16T23:06:33.471Z,12.40
2023-02-16T23:09:13.875Z,12.40
2023-02-16T23:11:41.054Z,12.40
2023-02-16T23:14:16.156Z,12.40
2023-02-16T23:16:49.973Z,12.40
2023-02-16T23:19:21.862Z,12.40
2023-02-16T23:21:49.422Z,12.40
2023-02-16T23:24:21.527Z,12.30
2023-02-16T23:26:48.821Z,12.40
2023-02-16T23:29:16.063Z,12.40
2023-02-16T23:31:46.565Z,12.30
2023-02-16T23:34:14.566Z,12.30
2023-02-16T23:39:12.970Z,12.30
2023-02-16T23:41:40.731Z,12.30
2023-02-16T23:44:09.949Z,12.30
2023-02-16T23:46:36.700Z,12.30
2023-02-16T23:49:03.787Z,12.30
2023-02-16T23:51:30.726Z,12.30
2023-02-16T23:53:57.552Z,12.30
2023-02-16T23:56:27.582Z,12.20
2023-02-16T23:59:00.025Z,12.20
